Time;durP1;ratioP1;P1;durP2;ratioP2;P2;SDS_P1;SDS_P2;PMS_P1;PMS_P2;Temp;Humidity;BMP_temperature;BMP_pressure;BME280_temperature;BME280_humidity;BME280_pressure;Samples;Min_cycle;Max_cycle;Signal;HPM_P1;HPM_P2
2022/12/15 00:40:22;;;;;;;32.03;15.77;;;-2.70;99.90;;;;;;5003891;28;20054;-58
2022/12/15 00:42:48;;;;;;;39.70;18.20;;;-2.70;99.90;;;;;;5007333;28;20104;-57
2022/12/15 00:45:13;;;;;;;34.80;17.27;;;-2.80;99.90;;;;;;5022251;28;20051;-58
2022/12/15 00:47:39;;;;;;;33.35;17.38;;;-2.80;99.90;;;;;;5023079;28;20152;-56
2022/12/15 01:20:18;;;;;;;32.50;17.30;;;-3.90;99.90;;;;;;5020514;28;20042;-59
2022/12/15 01:22:54;;;;;;;36.75;16.55;;;-4.00;99.90;;;;;;5004900;28;20041;-58
2022/12/15 01:25:22;;;;;;;36.83;15.68;;;-4.10;99.90;;;;;;5003385;28;20390;-57
2022/12/15 01:27:48;;;;;;;38.47;16.80;;;-4.20;99.90;;;;;;5001797;28;20576;-59
2022/12/15 01:30:18;;;;;;;38.38;17.88;;;-4.20;99.90;;;;;;5009828;28;20052;-57
2022/12/15 01:32:44;;;;;;;41.05;19.98;;;-4.20;99.90;;;;;;5026901;28;20586;-59
2022/12/15 01:35:10;;;;;;;47.75;20.98;;;-4.20;99.90;;;;;;5027133;28;20045;-59
2022/12/15 01:37:36;;;;;;;40.90;18.63;;;-4.10;99.90;;;;;;5026409;28;20333;-57
2022/12/15 01:42:48;;;;;;;45.50;21.25;;;-4.00;99.90;;;;;;5023985;28;20041;-59
2022/12/15 01:45:23;;;;;;;49.83;21.58;;;-3.90;99.90;;;;;;5024294;28;20119;-58
2022/12/15 01:48:01;;;;;;;52.20;22.20;;;-3.70;99.90;;;;;;5026094;28;20322;-59
2022/12/15 01:50:28;;;;;;;52.70;21.88;;;-3.60;99.90;;;;;;5026888;28;20313;-59
2022/12/15 01:52:54;;;;;;;50.00;21.77;;;-3.50;99.90;;;;;;5025820;28;20049;-58
2022/12/15 01:55:24;;;;;;;56.40;22.40;;;-3.30;99.90;;;;;;5026683;28;20603;-57
2022/12/15 01:57:53;;;;;;;45.17;20.15;;;-3.20;99.90;;;;;;5024773;28;20041;-58
2022/12/15 02:00:19;;;;;;;47.30;19.88;;;-3.00;99.90;;;;;;5025217;28;20118;-57
2022/12/15 02:02:44;;;;;;;43.05;18.92;;;-3.00;99.90;;;;;;5026570;28;20049;-57
2022/12/15 02:05:10;;;;;;;36.97;18.42;;;-2.90;99.90;;;;;;5026415;28;20041;-58
2022/12/15 02:07:36;;;;;;;35.05;17.48;;;-2.80;99.90;;;;;;5025246;28;20136;-57
2022/12/15 02:10:06;;;;;;;42.35;18.52;;;-2.80;99.90;;;;;;5025446;28;20668;-59
2022/12/15 02:13:00;;;;;;;34.90;15.95;;;-2.70;99.90;;;;;;5025106;28;20502;-56
2022/12/15 02:15:49;;;;;;;32.72;14.82;;;-2.60;99.90;;;;;;5024614;28;20041;-58
2022/12/15 02:18:40;;;;;;;29.08;14.07;;;-2.50;99.90;;;;;;5025594;28;20057;-59
2022/12/15 02:21:16;;;;;;;34.92;15.27;;;-2.50;99.90;;;;;;5025767;28;20459;-58
2022/12/15 02:24:18;;;;;;;35.55;15.88;;;-2.50;99.90;;;;;;5025338;28;20512;-60
2022/12/15 02:27:14;;;;;;;33.03;14.75;;;-2.50;99.90;;;;;;5024040;28;20467;-58
2022/12/15 02:29:50;;;;;;;32.75;16.08;;;-2.50;99.90;;;;;;5006747;28;20056;-59
2022/12/15 02:32:29;;;;;;;33.95;15.27;;;-2.40;99.90;;;;;;5026072;28;20045;-59
2022/12/15 02:35:06;;;;;;;40.38;16.17;;;-2.40;99.90;;;;;;5024736;28;20048;-60
2022/12/15 02:37:35;;;;;;;33.30;16.52;;;-2.40;99.90;;;;;;5025113;28;20514;-59
2022/12/15 02:40:03;;;;;;;32.15;15.23;;;-2.40;99.90;;;;;;5025381;28;20427;-59
2022/12/15 02:42:30;;;;;;;33.55;15.48;;;-2.40;99.90;;;;;;5024452;28;20041;-60
2022/12/15 02:45:08;;;;;;;27.90;14.77;;;-2.40;99.90;;;;;;5024005;28;20037;-59
2022/12/15 02:48:07;;;;;;;30.25;14.80;;;-2.40;99.90;;;;;;5025004;28;20081;-58
2022/12/15 02:50:48;;;;;;;30.35;13.98;;;-2.40;99.90;;;;;;5030818;28;20452;-58
2022/12/15 02:53:56;;;;;;;27.23;13.40;;;-2.50;99.90;;;;;;5022077;28;20068;-57
2022/12/15 02:57:04;;;;;;;33.42;15.13;;;-2.50;99.90;;;;;;5024725;28;20524;-57
2022/12/15 02:59:36;;;;;;;30.27;15.40;;;-2.50;99.90;;;;;;5017505;28;20540;-57
2022/12/15 03:02:05;;;;;;;29.73;15.10;;;-2.50;99.90;;;;;;5005365;28;20045;-59
2022/12/15 03:04:34;;;;;;;31.92;15.45;;;-2.50;99.90;;;;;;5019167;28;20052;-60
2022/12/15 03:07:07;;;;;;;36.45;16.50;;;-2.60;99.90;;;;;;5025301;28;20570;-58
2022/12/15 03:09:33;;;;;;;32.30;15.48;;;-2.60;99.90;;;;;;5023064;28;20045;-60
2022/12/15 03:11:59;;;;;;;34.53;16.35;;;-2.60;99.90;;;;;;5024121;28;20053;-59
2022/12/15 03:14:24;;;;;;;31.67;16.23;;;-2.60;99.90;;;;;;5022874;28;20149;-59
2022/12/15 03:16:51;;;;;;;32.47;15.43;;;-2.70;99.90;;;;;;5023003;28;20175;-59
2022/12/15 03:19:17;;;;;;;29.15;15.15;;;-2.70;99.90;;;;;;5022523;28;20056;-59
2022/12/15 03:21:42;;;;;;;33.05;15.35;;;-2.60;99.90;;;;;;5024610;28;20057;-59
2022/12/15 03:24:08;;;;;;;28.50;14.90;;;-2.70;99.90;;;;;;5023666;28;20128;-57
2022/12/15 03:26:34;;;;;;;28.67;14.80;;;-2.60;99.90;;;;;;5023790;28;20519;-58
2022/12/15 03:28:59;;;;;;;28.90;14.43;;;-2.70;99.90;;;;;;5023128;28;20044;-57
2022/12/15 03:31:25;;;;;;;26.27;14.10;;;-2.60;99.90;;;;;;5023760;28;20504;-60
2022/12/15 03:33:51;;;;;;;34.20;14.30;;;-2.60;99.90;;;;;;5023472;28;20041;-57
2022/12/15 03:36:16;;;;;;;26.85;13.70;;;-2.60;99.90;;;;;;5023834;28;20515;-58
2022/12/15 03:38:42;;;;;;;31.45;13.55;;;-2.60;99.90;;;;;;5023938;28;20080;-58
2022/12/15 03:41:07;;;;;;;28.92;13.80;;;-2.60;99.90;;;;;;5025019;28;20035;-58
2022/12/15 03:43:33;;;;;;;36.05;14.38;;;-2.60;99.90;;;;;;5022677;28;20044;-58
2022/12/15 03:45:58;;;;;;;28.98;14.55;;;-2.70;99.90;;;;;;5023052;28;20094;-59
2022/12/15 03:48:24;;;;;;;31.05;14.77;;;-2.70;99.90;;;;;;5024675;28;20041;-58
2022/12/15 03:50:49;;;;;;;27.05;13.73;;;-2.60;99.90;;;;;;5024292;28;20037;-58
2022/12/15 03:53:15;;;;;;;29.67;14.77;;;-2.60;99.90;;;;;;5023078;28;20045;-57
2022/12/15 03:55:41;;;;;;;25.60;13.23;;;-2.60;99.90;;;;;;5024486;28;20041;-58
2022/12/15 03:58:06;;;;;;;27.40;13.80;;;-2.60;99.90;;;;;;5022842;28;20045;-58
2022/12/15 04:00:32;;;;;;;25.20;13.13;;;-2.60;99.90;;;;;;5023048;28;20084;-59
2022/12/15 04:02:58;;;;;;;29.42;13.63;;;-2.60;99.90;;;;;;5024447;28;20052;-56
2022/12/15 04:05:27;;;;;;;29.15;13.90;;;-2.60;99.90;;;;;;5023955;28;20573;-58
2022/12/15 04:07:54;;;;;;;27.92;14.57;;;-2.70;99.90;;;;;;5023142;28;21091;-60
2022/12/15 04:10:20;;;;;;;33.63;15.65;;;-2.70;99.90;;;;;;5024131;28;20412;-58
2022/12/15 04:12:46;;;;;;;28.95;13.80;;;-2.70;99.90;;;;;;5022867;28;20048;-59
2022/12/15 04:15:11;;;;;;;29.85;15.60;;;-2.70;99.90;;;;;;5022770;28;20342;-59
2022/12/15 04:17:38;;;;;;;34.45;14.73;;;-2.80;99.90;;;;;;5023202;28;20052;-58
2022/12/15 04:20:08;;;;;;;32.05;15.25;;;-2.80;99.90;;;;;;5024234;28;20088;-59
2022/12/15 04:22:34;;;;;;;32.70;15.73;;;-2.80;99.90;;;;;;5023356;28;20049;-59
2022/12/15 05:33:28;;;;;;;25.20;12.35;;;-2.30;99.90;;;;;;5027323;28;20045;-58
2022/12/15 05:35:57;;;;;;;24.13;11.98;;;-2.30;99.90;;;;;;5026668;28;20096;-59
2022/12/15 05:38:22;;;;;;;29.65;12.85;;;-2.20;99.90;;;;;;5025622;28;20042;-59
2022/12/15 05:40:48;;;;;;;27.85;13.00;;;-2.20;99.90;;;;;;5027032;28;20400;-59
2022/12/15 05:43:13;;;;;;;22.50;11.82;;;-2.20;99.90;;;;;;5041049;28;20132;-60
2022/12/15 05:45:39;;;;;;;22.08;12.38;;;-2.20;99.90;;;;;;5024829;28;20049;-58
2022/12/15 05:48:05;;;;;;;23.00;12.38;;;-2.20;99.90;;;;;;5026502;28;20057;-58
2022/12/15 05:50:30;;;;;;;26.58;11.90;;;-2.10;99.90;;;;;;5026659;28;20524;-59
2022/12/15 05:52:57;;;;;;;22.33;11.80;;;-2.20;99.90;;;;;;5025340;28;20416;-59
2022/12/15 05:55:22;;;;;;;22.88;11.73;;;-2.20;99.90;;;;;;5026654;28;20060;-60
2022/12/15 05:57:52;;;;;;;20.15;10.75;;;-2.10;99.90;;;;;;5024766;28;20049;-59
2022/12/15 06:00:19;;;;;;;29.88;11.27;;;-2.20;99.90;;;;;;5024817;28;20045;-58
2022/12/15 06:02:44;;;;;;;21.38;11.75;;;-2.20;99.90;;;;;;5025067;28;20129;-59
2022/12/15 06:05:10;;;;;;;22.17;11.65;;;-2.20;99.90;;;;;;5024467;28;20140;-58
2022/12/15 06:07:36;;;;;;;20.83;11.40;;;-2.20;99.90;;;;;;5024330;28;20042;-58
2022/12/15 06:10:02;;;;;;;22.90;11.68;;;-2.20;99.90;;;;;;5025836;28;20175;-60
2022/12/15 06:12:28;;;;;;;23.50;10.32;;;-2.20;99.90;;;;;;5025521;28;20041;-59
2022/12/15 06:14:53;;;;;;;20.65;10.57;;;-2.20;99.90;;;;;;5024374;28;20591;-57
2022/12/15 06:17:19;;;;;;;25.50;11.38;;;-2.10;99.90;;;;;;5025461;28;20095;-59
2022/12/15 06:19:45;;;;;;;20.92;10.95;;;-2.10;99.90;;;;;;5025498;28;20033;-58
2022/12/15 06:22:11;;;;;;;23.52;10.82;;;-2.00;99.90;;;;;;5023310;28;20083;-58
2022/12/15 06:24:37;;;;;;;23.05;10.65;;;-2.00;99.90;;;;;;5024648;28;20048;-58
2022/12/15 06:27:03;;;;;;;23.48;10.95;;;-1.90;99.90;;;;;;5024087;28;20071;-59
2022/12/15 06:29:28;;;;;;;21.60;10.32;;;-1.90;99.90;;;;;;5024581;28;20041;-58
2022/12/15 06:31:54;;;;;;;26.90;10.50;;;-1.90;99.90;;;;;;5025060;28;20807;-59
2022/12/15 06:34:20;;;;;;;20.75;10.43;;;-1.90;99.90;;;;;;5025999;28;20122;-59
2022/12/15 06:36:45;;;;;;;20.00;10.15;;;-1.90;99.90;;;;;;5025245;28;20932;-59
2022/12/15 06:39:14;;;;;;;25.33;10.35;;;-1.80;99.90;;;;;;5023965;28;20140;-58
2022/12/15 06:41:40;;;;;;;18.80;8.80;;;-1.80;99.90;;;;;;5025227;28;20091;-59
2022/12/15 06:44:06;;;;;;;21.80;9.25;;;-1.80;99.90;;;;;;5023707;28;20110;-59
2022/12/15 06:46:33;;;;;;;19.98;9.00;;;-1.80;99.90;;;;;;5022025;28;20049;-58
2022/12/15 06:48:59;;;;;;;21.70;9.13;;;-1.70;99.90;;;;;;5025619;28;20057;-59
2022/12/15 06:51:25;;;;;;;15.95;7.72;;;-1.70;99.90;;;;;;5025069;28;20068;-57
2022/12/15 06:53:52;;;;;;;15.93;7.40;;;-1.70;99.90;;;;;;5025041;28;20049;-58
2022/12/15 06:56:25;;;;;;;16.85;7.72;;;-1.60;99.90;;;;;;5040157;28;20033;-59
2022/12/15 06:58:52;;;;;;;16.13;8.13;;;-1.50;99.90;;;;;;5004142;28;20512;-58
2022/12/15 07:01:22;;;;;;;16.10;8.05;;;-1.50;99.90;;;;;;5019421;28;20104;-59
2022/12/15 07:03:47;;;;;;;17.45;7.32;;;-1.40;99.90;;;;;;5025564;28;20678;-58
2022/12/15 07:06:15;;;;;;;18.65;7.90;;;-1.40;99.90;;;;;;5024927;28;20067;-59
2022/12/15 07:08:42;;;;;;;17.77;7.40;;;-1.40;99.90;;;;;;5022947;28;20030;-59
2022/12/15 07:11:10;;;;;;;16.92;7.20;;;-1.40;99.90;;;;;;5022745;28;20041;-58
2022/12/15 07:13:37;;;;;;;17.77;7.25;;;-1.50;99.90;;;;;;5021728;28;20033;-60
2022/12/15 07:16:05;;;;;;;13.52;7.00;;;-1.50;99.90;;;;;;5023072;28;20033;-59
2022/12/15 07:18:31;;;;;;;17.83;7.63;;;-1.40;99.90;;;;;;5024878;28;20124;-59
2022/12/15 07:21:02;;;;;;;18.83;6.88;;;-1.40;99.90;;;;;;5025093;28;20160;-59
2022/12/15 07:23:28;;;;;;;15.43;7.25;;;-1.40;99.90;;;;;;5023023;28;20052;-60
2022/12/15 07:25:53;;;;;;;19.33;8.18;;;-1.40;99.90;;;;;;5024523;28;20041;-58
2022/12/15 07:28:19;;;;;;;20.65;8.48;;;-1.40;99.90;;;;;;5021726;28;20103;-60
2022/12/15 07:30:44;;;;;;;17.90;7.68;;;-1.50;99.90;;;;;;5024320;28;20040;-58
2022/12/15 07:33:10;;;;;;;17.40;7.32;;;-1.40;99.90;;;;;;5025130;28;20065;-61
2022/12/15 07:35:36;;;;;;;20.40;7.53;;;-1.50;99.90;;;;;;5024561;28;20052;-57
2022/12/15 07:38:05;;;;;;;19.02;7.95;;;-1.50;99.90;;;;;;5023947;28;20098;-59
2022/12/15 07:40:31;;;;;;;19.75;8.60;;;-1.50;99.90;;;;;;5024500;28;20041;-61
2022/12/15 07:42:57;;;;;;;19.73;8.65;;;-1.50;99.90;;;;;;5023460;28;20583;-58
2022/12/15 07:45:22;;;;;;;19.38;8.07;;;-1.60;99.90;;;;;;5022905;28;20033;-61
2022/12/15 07:47:49;;;;;;;18.42;8.82;;;-1.60;99.90;;;;;;5024192;28;20342;-60
2022/12/15 07:50:15;;;;;;;21.00;8.70;;;-1.70;99.90;;;;;;5024191;28;20540;-58
2022/12/15 07:52:40;;;;;;;19.00;8.75;;;-1.70;99.90;;;;;;5023571;28;20152;-58
2022/12/15 07:55:06;;;;;;;13.52;7.95;;;-1.70;99.90;;;;;;5039373;28;20045;-60
2022/12/15 07:57:32;;;;;;;16.17;8.88;;;-1.70;99.90;;;;;;5023053;28;20088;-58
2022/12/15 07:59:57;;;;;;;19.50;9.52;;;-1.70;99.90;;;;;;5022459;28;20084;-58
2022/12/15 08:02:23;;;;;;;20.05;8.30;;;-1.70;99.90;;;;;;5024617;28;20044;-59
2022/12/15 08:04:48;;;;;;;20.95;8.95;;;-1.70;99.90;;;;;;5023978;28;20516;-59
2022/12/15 08:07:14;;;;;;;23.15;9.10;;;-1.70;99.90;;;;;;5039141;28;20585;-57
2022/12/15 08:09:40;;;;;;;20.15;9.65;;;-1.70;99.90;;;;;;5023416;28;20557;-61
2022/12/15 08:12:05;;;;;;;20.83;9.40;;;-1.60;99.90;;;;;;5022790;28;20041;-58
2022/12/15 08:14:33;;;;;;;18.35;9.38;;;-1.60;99.90;;;;;;5022581;28;20120;-59
2022/12/15 08:16:58;;;;;;;20.10;9.57;;;-1.60;99.90;;;;;;5023415;28;20535;-58
2022/12/15 08:19:24;;;;;;;20.63;9.10;;;-1.70;99.90;;;;;;5023614;28;20037;-58
2022/12/15 08:21:49;;;;;;;19.27;9.23;;;-1.60;99.90;;;;;;5022943;28;20045;-59
2022/12/15 08:24:16;;;;;;;18.17;9.32;;;-1.60;99.90;;;;;;5023193;28;20045;-58
2022/12/15 08:26:43;;;;;;;25.13;9.40;;;-1.60;99.90;;;;;;5023308;28;20076;-58
2022/12/15 08:29:12;;;;;;;20.40;10.35;;;-1.50;99.90;;;;;;5022117;28;20057;-58
2022/12/15 08:31:39;;;;;;;18.08;9.02;;;-1.50;99.90;;;;;;5021592;28;20045;-59
2022/12/15 08:34:04;;;;;;;14.68;8.82;;;-1.50;99.90;;;;;;5023602;28;20488;-58
2022/12/15 08:36:31;;;;;;;19.30;9.18;;;-1.50;99.90;;;;;;5023581;28;20033;-59
2022/12/15 08:38:59;;;;;;;18.73;8.45;;;-1.40;99.90;;;;;;5021490;28;20030;-58
2022/12/15 08:41:27;;;;;;;17.88;8.98;;;-1.40;99.90;;;;;;5023498;28;20322;-58
2022/12/15 08:43:54;;;;;;;18.55;9.13;;;-1.40;99.90;;;;;;5021643;28;20092;-60
2022/12/15 08:46:22;;;;;;;18.80;8.82;;;-1.40;99.90;;;;;;5022596;28;20049;-60
2022/12/15 08:48:48;;;;;;;20.33;9.55;;;-1.30;99.90;;;;;;5037343;28;20039;-60
2022/12/15 08:51:14;;;;;;;23.30;10.05;;;-1.30;99.90;;;;;;5023472;28;20049;-59
2022/12/15 08:53:40;;;;;;;20.25;9.38;;;-1.30;99.90;;;;;;5022280;28;20041;-60
2022/12/15 08:56:08;;;;;;;24.20;9.50;;;-1.20;99.90;;;;;;5023224;28;20042;-59
2022/12/15 08:58:34;;;;;;;23.20;10.27;;;-1.20;99.90;;;;;;5021735;28;20045;-61
2022/12/15 09:01:05;;;;;;;20.05;10.02;;;-1.20;99.90;;;;;;5023405;28;20659;-58
2022/12/15 09:03:32;;;;;;;19.90;9.80;;;-1.10;99.90;;;;;;5023436;28;20041;-58
2022/12/15 09:06:03;;;;;;;20.55;9.10;;;-1.10;99.90;;;;;;5023336;28;20049;-59
2022/12/15 09:08:29;;;;;;;22.60;10.32;;;-1.10;99.90;;;;;;5021203;28;20443;-59
2022/12/15 09:10:57;;;;;;;19.23;10.13;;;-1.00;99.90;;;;;;5023397;28;20076;-59
2022/12/15 09:13:23;;;;;;;20.80;10.30;;;-0.90;99.90;;;;;;5022064;28;20041;-58
2022/12/15 09:16:07;;;;;;;16.25;9.90;;;-0.90;99.90;;;;;;5020407;28;20473;-60
2022/12/15 09:18:33;;;;;;;19.63;9.88;;;-0.80;99.90;;;;;;5022695;28;20114;-58
2022/12/15 09:21:06;;;;;;;19.70;10.55;;;-0.70;99.90;;;;;;5038941;28;20257;-58
2022/12/15 09:23:33;;;;;;;20.23;9.93;;;-0.60;99.90;;;;;;5022767;28;20758;-61
2022/12/15 09:26:00;;;;;;;17.35;9.73;;;-0.60;99.90;;;;;;5021865;28;20280;-60
2022/12/15 09:28:28;;;;;;;19.95;9.63;;;-0.50;99.90;;;;;;5021677;28;20065;-59
2022/12/15 09:31:00;;;;;;;19.60;9.32;;;-0.40;99.90;;;;;;5023021;28;20210;-59
2022/12/15 09:33:26;;;;;;;20.10;9.57;;;-0.30;99.90;;;;;;5022921;28;20419;-60
2022/12/15 09:35:51;;;;;;;23.45;9.98;;;-0.20;99.90;;;;;;5037773;28;20041;-59
2022/12/15 09:38:17;;;;;;;20.35;9.55;;;-0.10;99.90;;;;;;5021423;28;20113;-60
2022/12/15 09:40:42;;;;;;;19.25;9.43;;;0.00;99.90;;;;;;5023326;28;20041;-58
2022/12/15 09:43:14;;;;;;;21.40;10.63;;;0.00;99.90;;;;;;5022034;28;20041;-60
2022/12/15 09:45:44;;;;;;;19.35;9.25;;;0.00;99.90;;;;;;5022286;28;20095;-61
2022/12/15 09:48:19;;;;;;;20.67;8.77;;;0.00;99.90;;;;;;5022999;28;20041;-58
2022/12/15 09:50:47;;;;;;;18.55;8.15;;;0.00;99.90;;;;;;5022667;28;20049;-59
2022/12/15 09:53:16;;;;;;;18.25;8.25;;;0.00;99.90;;;;;;5025233;28;20064;-58
2022/12/15 09:55:44;;;;;;;19.33;10.85;;;0.00;99.90;;;;;;5026525;28;20056;-61
2022/12/15 09:58:31;;;;;;;21.85;9.82;;;0.10;99.90;;;;;;5025463;28;20115;-58
2022/12/15 10:01:28;;;;;;;18.92;9.18;;;0.00;99.90;;;;;;5025279;28;20076;-59
2022/12/15 10:03:54;;;;;;;19.90;8.73;;;0.10;99.90;;;;;;5026062;28;20048;-58
2022/12/15 10:06:26;;;;;;;21.60;9.13;;;0.10;99.90;;;;;;5025991;28;20045;-59
2022/12/15 10:09:03;;;;;;;20.13;9.55;;;0.20;99.90;;;;;;5025439;28;20560;-61
2022/12/15 10:11:55;;;;;;;18.67;9.65;;;0.40;99.90;;;;;;5026371;28;20056;-59
2022/12/15 10:14:43;;;;;;;17.92;9.93;;;0.40;99.90;;;;;;5015500;28;20053;-58
2022/12/15 10:17:33;;;;;;;23.58;10.07;;;0.50;99.90;;;;;;5026130;28;20095;-59
2022/12/15 10:20:17;;;;;;;23.50;10.20;;;0.60;99.90;;;;;;5026026;28;20041;-60
2022/12/15 10:22:43;;;;;;;19.80;9.32;;;0.70;99.90;;;;;;5025587;28;20517;-60
2022/12/15 10:25:21;;;;;;;17.23;9.75;;;0.70;99.90;;;;;;5026070;28;20448;-58
2022/12/15 10:28:11;;;;;;;21.23;10.75;;;0.70;99.90;;;;;;5026071;28;20037;-58
2022/12/15 10:31:06;;;;;;;17.00;8.98;;;0.70;99.90;;;;;;5025540;28;20467;-59
2022/12/15 10:33:38;;;;;;;18.25;9.55;;;0.70;99.90;;;;;;5021504;28;20056;-58
2022/12/15 10:36:13;;;;;;;17.35;8.00;;;0.70;99.90;;;;;;5006188;28;20050;-59
2022/12/15 10:38:46;;;;;;;21.05;9.07;;;0.70;99.90;;;;;;5011449;28;20143;-59
2022/12/15 10:41:14;;;;;;;18.30;8.48;;;0.80;99.90;;;;;;5025893;28;20064;-60
2022/12/15 10:43:44;;;;;;;21.67;8.55;;;0.90;99.90;;;;;;5024449;28;20124;-60
2022/12/15 10:46:17;;;;;;;15.80;8.13;;;0.90;99.90;;;;;;5024907;28;20330;-60
2022/12/15 10:48:45;;;;;;;17.63;8.00;;;1.00;99.90;;;;;;5025157;28;20448;-59
2022/12/15 10:51:20;;;;;;;18.42;8.25;;;1.10;99.90;;;;;;5025931;28;20089;-60
2022/12/15 10:53:48;;;;;;;17.80;8.23;;;1.20;99.90;;;;;;5023240;28;20071;-59
2022/12/15 10:56:25;;;;;;;17.20;8.70;;;1.30;99.90;;;;;;5025773;28;20077;-60
2022/12/15 10:58:54;;;;;;;17.92;9.20;;;1.40;99.90;;;;;;5024309;28;20037;-61
2022/12/15 11:01:24;;;;;;;17.60;8.02;;;1.50;99.90;;;;;;5023903;28;20049;-60
2022/12/15 11:03:51;;;;;;;18.20;7.78;;;1.50;99.90;;;;;;5023688;28;20414;-59
2022/12/15 11:06:26;;;;;;;17.70;7.93;;;1.60;99.90;;;;;;5004532;28;20397;-59
2022/12/15 11:09:26;;;;;;;16.92;7.35;;;1.70;99.90;;;;;;5013569;28;20046;-60
2022/12/15 11:14:48;;;;;;;15.48;7.63;;;1.70;99.90;;;;;;5023505;28;20045;-61
2022/12/15 11:17:21;;;;;;;18.67;7.90;;;1.80;99.90;;;;;;5025669;28;20203;-60
2022/12/15 11:19:59;;;;;;;17.80;7.40;;;1.90;99.90;;;;;;5023642;28;20041;-60
2022/12/15 11:22:34;;;;;;;19.35;8.02;;;1.90;99.90;;;;;;5026186;28;20112;-60
2022/12/15 11:25:38;;;;;;;18.83;7.80;;;2.00;99.90;;;;;;5025238;28;20045;-60
2022/12/15 11:28:12;;;;;;;14.88;7.80;;;2.20;99.90;;;;;;5023615;28;20056;-60
2022/12/15 11:30:44;;;;;;;17.60;7.88;;;2.30;99.90;;;;;;5024682;28;20496;-60
2022/12/15 11:33:10;;;;;;;16.70;7.93;;;2.50;99.90;;;;;;5024173;28;20782;-62
2022/12/15 11:36:06;;;;;;;18.42;7.95;;;2.60;99.90;;;;;;5024103;28;20053;-62
2022/12/15 11:38:52;;;;;;;17.67;8.23;;;2.50;99.90;;;;;;5024205;28;20392;-60
2022/12/15 11:41:54;;;;;;;17.10;7.40;;;2.50;99.90;;;;;;5024957;28;20072;-60
2022/12/15 11:44:26;;;;;;;16.13;8.07;;;2.30;99.90;;;;;;5003446;28;20045;-62
2022/12/15 11:47:08;;;;;;;13.75;7.45;;;2.30;99.90;;;;;;5020203;28;20045;-60
2022/12/15 11:49:37;;;;;;;16.38;8.10;;;2.30;99.90;;;;;;5024434;28;20731;-59
2022/12/15 11:52:22;;;;;;;18.85;9.25;;;2.30;99.90;;;;;;5024439;28;20686;-60
2022/12/15 11:55:06;;;;;;;19.27;8.13;;;2.30;99.90;;;;;;5023385;28;20057;-61
2022/12/15 11:57:52;;;;;;;13.25;6.95;;;2.30;99.90;;;;;;5024097;28;20674;-61
2022/12/15 12:00:20;;;;;;;18.73;8.25;;;2.30;99.90;;;;;;5038476;28;20042;-61
2022/12/15 12:02:48;;;;;;;17.27;7.97;;;2.20;99.90;;;;;;5012674;28;20053;-60
2022/12/15 12:05:29;;;;;;;19.73;8.23;;;2.20;99.90;;;;;;5018189;28;20412;-61
2022/12/15 12:08:15;;;;;;;16.60;7.93;;;2.20;99.90;;;;;;5024053;28;20233;-60
2022/12/15 12:10:57;;;;;;;17.95;7.40;;;2.20;99.90;;;;;;5004899;28;20044;-61
2022/12/15 12:13:33;;;;;;;15.38;7.35;;;2.10;99.90;;;;;;5016728;28;20044;-59
2022/12/15 12:16:38;;;;;;;17.02;7.40;;;2.10;99.90;;;;;;5022868;28;20107;-59
2022/12/15 12:19:10;;;;;;;16.73;6.45;;;2.10;99.90;;;;;;5024150;28;20117;-60
2022/12/15 12:21:39;;;;;;;15.80;6.93;;;2.20;99.90;;;;;;5024087;28;20564;-59
2022/12/15 12:24:26;;;;;;;14.77;7.05;;;2.20;99.90;;;;;;5023282;28;20064;-59
2022/12/15 12:27:09;;;;;;;19.10;6.93;;;2.30;99.90;;;;;;5023465;28;20046;-60
2022/12/15 12:29:44;;;;;;;12.13;6.75;;;2.40;99.90;;;;;;5021785;28;20103;-59
2022/12/15 12:32:46;;;;;;;12.43;6.45;;;2.50;99.90;;;;;;5022425;28;20049;-59
2022/12/15 12:35:18;;;;;;;16.73;6.20;;;2.50;99.90;;;;;;5003363;28;20045;-60
2022/12/15 12:38:00;;;;;;;15.55;6.07;;;2.50;99.90;;;;;;5023218;28;20576;-59
2022/12/15 12:40:49;;;;;;;13.10;5.95;;;2.60;99.90;;;;;;5023528;28;20033;-59
2022/12/15 12:43:39;;;;;;;19.02;5.60;;;2.60;99.90;;;;;;5021880;28;20132;-60
2022/12/15 12:46:25;;;;;;;11.00;5.85;;;2.70;99.90;;;;;;5022837;28;20069;-60
2022/12/15 12:49:06;;;;;;;19.00;5.72;;;2.70;99.90;;;;;;5023211;28;20466;-60
2022/12/15 12:51:40;;;;;;;14.23;5.45;;;2.80;99.90;;;;;;5039003;28;20060;-60
2022/12/15 12:54:26;;;;;;;;;;;2.90;99.90;;;;;;5023177;28;20041;-58
2022/12/15 12:56:52;;;;;;;19.13;6.60;;;3.00;99.90;;;;;;5022336;28;20140;-59
2022/12/15 12:59:29;;;;;;;14.50;6.55;;;3.10;99.90;;;;;;5021668;28;20037;-58
2022/12/15 13:01:56;;;;;;;12.10;6.03;;;3.10;99.90;;;;;;5021620;28;20041;-60
2022/12/15 13:04:28;;;;;;;15.45;5.88;;;3.10;99.90;;;;;;5021442;28;20501;-60
2022/12/15 13:06:55;;;;;;;19.00;6.90;;;3.10;99.90;;;;;;5023347;28;20129;-59
2022/12/15 13:09:23;;;;;;;12.05;6.53;;;3.10;99.90;;;;;;5022953;28;20042;-60
2022/12/15 13:11:51;;;;;;;21.20;7.05;;;3.10;99.90;;;;;;5023387;28;20087;-58
2022/12/15 13:14:40;;;;;;;16.90;6.90;;;3.10;99.90;;;;;;5022050;28;20037;-60
2022/12/15 13:17:12;;;;;;;16.35;6.63;;;3.00;99.90;;;;;;5023116;28;20037;-59
2022/12/15 13:19:55;;;;;;;15.18;7.35;;;3.10;99.90;;;;;;5023006;28;20785;-60
2022/12/15 13:22:34;;;;;;;21.23;7.87;;;3.00;99.90;;;;;;5023585;28;20098;-58
2022/12/15 13:25:01;;;;;;;18.33;7.05;;;2.90;99.90;;;;;;5022451;28;20042;-60
2022/12/15 13:27:37;;;;;;;14.13;6.85;;;2.90;99.90;;;;;;5021069;28;20148;-60
2022/12/15 13:30:08;;;;;;;15.63;6.57;;;2.90;99.90;;;;;;5025104;28;20073;-59
2022/12/15 13:32:43;;;;;;;17.60;7.47;;;2.90;99.90;;;;;;5007218;28;20045;-58
2022/12/15 13:35:11;;;;;;;17.17;7.22;;;2.80;99.90;;;;;;5019010;28;20667;-59
2022/12/15 13:38:01;;;;;;;18.23;7.70;;;2.80;99.90;;;;;;5025686;28;20052;-60
2022/12/15 13:40:33;;;;;;;17.67;7.70;;;2.80;99.90;;;;;;5024147;28;20401;-59
2022/12/15 13:43:02;;;;;;;17.05;6.97;;;2.80;99.90;;;;;;5026080;28;20049;-57
2022/12/15 13:45:49;;;;;;;17.90;6.85;;;2.80;99.90;;;;;;5009298;28;20760;-60
2022/12/15 13:48:24;;;;;;;17.58;7.18;;;2.80;99.90;;;;;;5014117;28;20037;-60
2022/12/15 13:51:14;;;;;;;14.65;7.28;;;2.80;99.90;;;;;;5023665;28;20412;-59
2022/12/15 13:53:45;;;;;;;14.57;6.75;;;2.80;99.90;;;;;;5022201;28;20133;-59
2022/12/15 13:56:10;;;;;;;18.83;7.28;;;2.80;99.90;;;;;;5022001;28;20030;-60
2022/12/15 13:58:47;;;;;;;13.25;7.18;;;2.70;99.90;;;;;;5020881;28;20049;-60
2022/12/15 14:01:27;;;;;;;19.98;7.43;;;2.60;99.90;;;;;;5021715;28;20404;-59
2022/12/15 14:04:06;;;;;;;13.95;6.43;;;2.60;99.90;;;;;;5021893;28;20060;-60
2022/12/15 14:06:43;;;;;;;17.98;7.90;;;2.50;99.90;;;;;;5023171;28;20113;-59
2022/12/15 14:09:13;;;;;;;18.02;6.82;;;2.50;99.90;;;;;;5022898;28;20099;-60
2022/12/15 14:11:40;;;;;;;16.65;7.25;;;2.40;99.90;;;;;;5040376;28;20449;-60
2022/12/15 14:14:16;;;;;;;21.33;8.00;;;2.40;99.90;;;;;;5023418;28;20268;-60
2022/12/15 14:16:43;;;;;;;20.80;8.43;;;2.30;99.90;;;;;;5022132;28;20044;-59
2022/12/15 14:19:16;;;;;;;19.63;7.80;;;2.30;99.90;;;;;;5022829;28;20325;-59
2022/12/15 14:21:53;;;;;;;16.63;8.35;;;2.20;99.90;;;;;;5024939;28;20112;-59
2022/12/15 14:24:31;;;;;;;17.80;8.20;;;2.20;99.90;;;;;;5023103;28;20033;-60
2022/12/15 14:26:57;;;;;;;16.63;7.82;;;2.10;99.90;;;;;;5022409;28;20061;-60
2022/12/15 14:29:23;;;;;;;17.70;7.97;;;2.10;99.90;;;;;;5022602;28;20496;-59
2022/12/15 14:31:55;;;;;;;19.48;8.07;;;2.10;99.90;;;;;;5022977;28;20068;-60
2022/12/15 14:34:25;;;;;;;16.10;7.38;;;2.10;99.90;;;;;;5022530;28;20038;-60
2022/12/15 14:36:54;;;;;;;18.67;8.13;;;2.10;99.90;;;;;;5025240;28;20037;-58
2022/12/15 14:39:35;;;;;;;15.05;8.15;;;2.10;99.90;;;;;;5023425;28;20083;-59
2022/12/15 14:42:01;;;;;;;18.80;8.07;;;2.10;99.90;;;;;;5020477;28;20111;-60
2022/12/15 14:44:30;;;;;;;16.35;7.85;;;2.10;99.90;;;;;;5022408;28;20635;-59
2022/12/15 14:46:56;;;;;;;17.27;8.07;;;2.00;99.90;;;;;;5023778;28;20080;-61
2022/12/15 14:49:26;;;;;;;18.65;8.35;;;2.00;99.90;;;;;;5020918;28;20030;-61
2022/12/15 14:51:58;;;;;;;20.25;8.65;;;2.00;99.90;;;;;;5024336;28;20862;-59
2022/12/15 14:54:55;;;;;;;19.08;9.02;;;1.90;99.90;;;;;;5023469;28;20138;-59
2022/12/15 14:57:44;;;;;;;21.70;9.80;;;1.90;99.90;;;;;;5012168;28;20103;-58
2022/12/15 15:00:33;;;;;;;19.08;9.13;;;1.80;99.90;;;;;;5024357;28;20108;-59
2022/12/15 15:03:17;;;;;;;22.65;9.48;;;1.70;99.90;;;;;;5024587;28;20045;-61
2022/12/15 15:06:03;;;;;;;;;;;1.70;99.90;;;;;;5024562;28;20037;-60
2022/12/15 15:08:35;;;;;;;18.10;9.07;;;1.70;99.90;;;;;;5019549;28;19931;-59
2022/12/15 15:11:18;;;;;;;17.90;10.13;;;1.60;99.90;;;;;;5025043;28;20610;-59
2022/12/15 15:13:44;;;;;;;21.60;10.30;;;1.50;99.90;;;;;;5023475;28;20140;-60
2022/12/15 15:16:16;;;;;;;20.27;11.23;;;1.50;99.90;;;;;;5023497;28;20048;-58
2022/12/15 15:18:42;;;;;;;18.88;9.85;;;1.40;99.90;;;;;;5022222;28;20107;-58
2022/12/15 15:21:15;;;;;;;23.40;10.70;;;1.40;99.90;;;;;;5021233;28;20045;-59
2022/12/15 15:23:41;;;;;;;21.15;11.63;;;1.30;99.90;;;;;;5020353;28;20045;-60
2022/12/15 15:26:09;;;;;;;20.05;10.90;;;1.30;99.90;;;;;;5019668;28;20037;-58